createdAt,value
2022-09-18T00:00:54.000Z,998.7
2022-09-18T00:02:07.000Z,998.7
2022-09-18T00:03:19.000Z,998.7
2022-09-18T00:04:31.000Z,998.8
2022-09-18T00:05:43.000Z,998.8
2022-09-18T00:06:55.000Z,998.7
2022-09-18T00:08:07.000Z,998.7
2022-09-18T00:09:20.000Z,998.8
2022-09-18T00:10:32.000Z,998.7
2022-09-18T00:11:44.000Z,998.7
2022-09-18T00:12:56.000Z,998.7
2022-09-18T00:14:07.000Z,998.7
2022-09-18T00:15:20.000Z,998.8
2022-09-18T00:16:32.000Z,998.8
2022-09-18T00:17:44.000Z,998.8
2022-09-18T00:18:56.000Z,998.8
2022-09-18T00:20:08.000Z,998.9
2022-09-18T00:21:21.000Z,998.8
2022-09-18T00:22:33.000Z,998.8
2022-09-18T00:23:45.000Z,998.9
2022-09-18T00:24:57.000Z,998.8
2022-09-18T00:26:09.000Z,998.8
2022-09-18T00:27:21.000Z,998.8
2022-09-18T00:28:34.000Z,998.9
2022-09-18T00:29:45.000Z,998.8
2022-09-18T00:30:57.000Z,998.9
2022-09-18T00:32:09.000Z,998.9
2022-09-18T00:33:21.000Z,998.8
2022-09-18T00:34:34.000Z,998.8
2022-09-18T00:35:46.000Z,998.9
2022-09-18T00:36:58.000Z,998.8
2022-09-18T00:38:10.000Z,998.9
2022-09-18T00:39:22.000Z,998.9
2022-09-18T00:40:35.000Z,998.9
2022-09-18T00:41:47.000Z,999
2022-09-18T00:42:59.000Z,998.9
2022-09-18T00:44:11.000Z,999
2022-09-18T00:45:22.000Z,999
2022-09-18T00:46:34.000Z,999
2022-09-18T00:47:47.000Z,999
2022-09-18T00:48:59.000Z,998.9
2022-09-18T00:50:11.000Z,999
2022-09-18T00:51:23.000Z,999
2022-09-18T00:52:35.000Z,998.9
2022-09-18T00:53:48.078Z,999
2022-09-18T00:55:00.000Z,999
2022-09-18T00:56:12.000Z,999
2022-09-18T00:57:24.000Z,999
2022-09-18T00:58:36.000Z,999
2022-09-18T00:59:49.000Z,999
2022-09-18T01:01:00.000Z,999.1
2022-09-18T01:02:12.000Z,999.1
2022-09-18T01:03:24.000Z,999.1
2022-09-18T01:04:36.000Z,999.2
2022-09-18T01:05:48.000Z,999.1
2022-09-18T01:07:01.000Z,999.2
2022-09-18T01:08:12.000Z,999.2
2022-09-18T01:09:24.000Z,999.2
2022-09-18T01:10:36.000Z,999.2
2022-09-18T01:11:48.000Z,999.2
2022-09-18T01:13:01.000Z,999.3
2022-09-18T01:14:13.000Z,999.2
2022-09-18T01:15:25.000Z,999.2
2022-09-18T01:16:37.000Z,999.2
2022-09-18T01:17:49.000Z,999.2
2022-09-18T01:19:01.000Z,999.3
2022-09-18T01:20:14.000Z,999.3
2022-09-18T01:21:26.000Z,999.2
2022-09-18T01:22:38.000Z,999.2
2022-09-18T01:23:49.000Z,999.2
2022-09-18T01:25:01.000Z,999.3
2022-09-18T01:26:14.000Z,999.3
2022-09-18T01:27:26.000Z,999.3
2022-09-18T01:28:38.000Z,999.4
2022-09-18T01:29:50.000Z,999.3
2022-09-18T01:31:02.000Z,999.3
2022-09-18T01:32:15.000Z,999.3
2022-09-18T01:33:27.000Z,999.4
2022-09-18T01:34:39.000Z,999.4
2022-09-18T01:35:51.000Z,999.4
2022-09-18T01:37:03.000Z,999.4
2022-09-18T01:38:15.000Z,999.4
2022-09-18T01:39:27.000Z,999.4
2022-09-18T01:40:39.000Z,999.4
2022-09-18T01:41:51.000Z,999.4
2022-09-18T01:43:03.000Z,999.4
2022-09-18T01:44:15.000Z,999.5
2022-09-18T01:45:28.000Z,999.5
2022-09-18T01:46:40.000Z,999.5
2022-09-18T01:47:52.000Z,999.5
2022-09-18T01:49:04.000Z,999.5
2022-09-18T01:50:16.000Z,999.5
2022-09-18T01:51:29.000Z,999.4
2022-09-18T01:52:41.000Z,999.4
2022-09-18T01:53:53.000Z,999.4
2022-09-18T01:55:04.000Z,999.4
2022-09-18T01:56:16.000Z,999.5
2022-09-18T01:57:28.000Z,999.4
2022-09-18T01:58:41.000Z,999.4
2022-09-18T01:59:53.000Z,999.5
2022-09-18T02:01:05.000Z,999.5
2022-09-18T02:02:17.000Z,999.4
2022-09-18T02:03:29.000Z,999.4
2022-09-18T02:04:42.000Z,999.4
2022-09-18T02:05:54.000Z,999.5
2022-09-18T02:07:06.000Z,999.4
2022-09-18T02:08:18.000Z,999.5
2022-09-18T02:09:30.000Z,999.5
2022-09-18T02:10:42.000Z,999.5
2022-09-18T02:11:54.000Z,999.5
2022-09-18T02:13:06.000Z,999.6
2022-09-18T02:14:18.000Z,999.5
2022-09-18T02:15:30.000Z,999.5
2022-09-18T02:16:42.000Z,999.5
2022-09-18T02:17:55.000Z,999.6
2022-09-18T02:19:07.000Z,999.6
2022-09-18T02:20:19.000Z,999.6
2022-09-18T02:21:31.000Z,999.6
2022-09-18T02:22:43.000Z,999.6
2022-09-18T02:23:56.000Z,999.6
2022-09-18T02:25:08.000Z,999.6
2022-09-18T02:26:19.000Z,999.6
2022-09-18T02:27:31.000Z,999.6
2022-09-18T02:28:43.000Z,999.7
2022-09-18T02:31:08.000Z,999.7
2022-09-18T02:32:20.000Z,999.7
2022-09-18T02:33:32.000Z,999.7
2022-09-18T02:35:39.040Z,999.7
2022-09-18T02:35:56.000Z,999.7
2022-09-18T02:37:09.000Z,999.6
2022-09-18T02:38:21.000Z,999.7
2022-09-18T02:39:33.000Z,999.8
2022-09-18T02:40:27.778Z,999.6
2022-09-18T02:40:45.000Z,999.8
2022-09-18T02:41:56.000Z,999.7
2022-09-18T02:43:09.000Z,999.7
2022-09-18T02:44:21.000Z,999.8
2022-09-18T02:45:33.000Z,999.8
2022-09-18T02:46:45.000Z,999.8
2022-09-18T02:47:57.000Z,999.7
2022-09-18T02:49:09.000Z,999.8
2022-09-18T02:50:22.000Z,999.8
2022-09-18T02:51:34.000Z,999.8
2022-09-18T02:52:46.000Z,999.9
2022-09-18T02:53:58.000Z,999.9
2022-09-18T02:55:10.000Z,999.9
2022-09-18T02:56:23.000Z,999.9
2022-09-18T02:57:34.000Z,999.9
2022-09-18T02:58:46.000Z,999.9
2022-09-18T02:59:58.000Z,1000
2022-09-18T03:01:10.000Z,1000
2022-09-18T03:02:23.000Z,1000
2022-09-18T03:03:35.000Z,1000
2022-09-18T03:04:47.000Z,1000
2022-09-18T03:07:11.000Z,1000
2022-09-18T03:08:23.000Z,1000
2022-09-18T03:09:36.000Z,999.9
2022-09-18T03:10:48.000Z,1000
2022-09-18T03:11:42.649Z,1000
2022-09-18T03:12:00.000Z,1000
2022-09-18T03:13:11.000Z,999.9
2022-09-18T03:14:23.000Z,1000
2022-09-18T03:15:36.000Z,1000
2022-09-18T03:16:48.000Z,999.9
2022-09-18T03:18:00.000Z,1000
2022-09-18T03:19:12.000Z,999.9
2022-09-18T03:20:24.000Z,999.9
2022-09-18T03:21:37.000Z,999.9
2022-09-18T03:22:49.000Z,999.9
2022-09-18T03:24:01.000Z,999.9
2022-09-18T03:25:13.000Z,999.9
2022-09-18T03:26:25.000Z,999.9
2022-09-18T03:27:37.000Z,1000
2022-09-18T03:28:49.000Z,1000
2022-09-18T03:30:01.000Z,1000
2022-09-18T03:31:13.000Z,1000
2022-09-18T03:32:25.000Z,1000
2022-09-18T03:33:37.000Z,1000
2022-09-18T03:34:50.000Z,1000.1
2022-09-18T03:36:02.000Z,1000
2022-09-18T03:37:14.000Z,1000.1
2022-09-18T03:38:26.000Z,1000
2022-09-18T03:39:38.000Z,1000.1
2022-09-18T03:40:51.000Z,1000.1
2022-09-18T03:42:03.000Z,1000.1
2022-09-18T03:43:15.000Z,1000.1
2022-09-18T03:44:26.000Z,1000.1
2022-09-18T03:45:38.000Z,1000.2
2022-09-18T03:46:50.000Z,1000.1
2022-09-18T03:48:03.000Z,1000.1
2022-09-18T03:49:15.000Z,1000.1
2022-09-18T03:50:27.000Z,1000.1
2022-09-18T03:51:39.000Z,1000.2
2022-09-18T03:52:51.000Z,1000.1
2022-09-18T03:54:04.000Z,1000.1
2022-09-18T03:55:16.000Z,1000.2
2022-09-18T03:56:28.000Z,1000.1
2022-09-18T03:57:40.000Z,1000.2
2022-09-18T03:58:52.000Z,1000.2
2022-09-18T04:00:04.000Z,1000.2
2022-09-18T04:01:16.000Z,1000.2
2022-09-18T04:02:28.000Z,1000.2
2022-09-18T04:03:40.000Z,1000.2
2022-09-18T04:04:52.000Z,1000.2
2022-09-18T04:06:04.000Z,1000.2
2022-09-18T04:07:17.000Z,1000.1
2022-09-18T04:08:29.000Z,1000.2
2022-09-18T04:09:41.000Z,1000.2
2022-09-18T04:10:53.000Z,1000.2
2022-09-18T04:12:05.000Z,1000.2
2022-09-18T04:13:18.000Z,1000.2
2022-09-18T04:14:30.000Z,1000.2
2022-09-18T04:15:41.000Z,1000.2
2022-09-18T04:16:53.000Z,1000.2
2022-09-18T04:18:05.000Z,1000.3
2022-09-18T04:19:17.000Z,1000.2
2022-09-18T04:20:30.000Z,1000.2
2022-09-18T04:21:42.000Z,1000.2
2022-09-18T04:22:54.000Z,1000.2
2022-09-18T04:24:06.000Z,1000.2
2022-09-18T04:25:18.000Z,1000.1
2022-09-18T04:26:31.000Z,1000.2
2022-09-18T04:27:43.000Z,1000.2
2022-09-18T04:28:55.000Z,1000.2
2022-09-18T04:30:07.000Z,1000.1
2022-09-18T04:31:18.000Z,1000.2
2022-09-18T04:32:31.000Z,1000.2
2022-09-18T04:33:43.000Z,1000.2
2022-09-18T04:34:55.000Z,1000.2
2022-09-18T04:36:07.000Z,1000.1
2022-09-18T04:37:19.000Z,1000.2
2022-09-18T04:38:31.000Z,1000.2
2022-09-18T04:39:44.000Z,1000.2
2022-09-18T04:40:56.000Z,1000.2
2022-09-18T04:42:08.000Z,1000.2
2022-09-18T04:43:20.000Z,1000.2
2022-09-18T04:44:32.000Z,1000.2
2022-09-18T04:45:45.000Z,1000.2
2022-09-18T04:46:56.000Z,1000.2
2022-09-18T04:48:08.000Z,1000.2
2022-09-18T04:49:20.000Z,1000.3
2022-09-18T04:50:32.000Z,1000.3
2022-09-18T04:51:45.000Z,1000.3
2022-09-18T04:52:57.000Z,1000.3
2022-09-18T04:54:09.000Z,1000.3
2022-09-18T04:55:21.000Z,1000.3
2022-09-18T04:56:33.000Z,1000.4
2022-09-18T04:57:45.000Z,1000.4
2022-09-18T04:58:58.000Z,1000.4
2022-09-18T05:00:10.000Z,1000.4
2022-09-18T05:01:22.000Z,1000.4
2022-09-18T05:02:33.000Z,1000.4
2022-09-18T05:03:45.000Z,1000.3
2022-09-18T05:04:58.000Z,1000.4
2022-09-18T05:06:10.000Z,1000.4
2022-09-18T05:07:22.000Z,1000.4
2022-09-18T05:08:34.000Z,1000.4
2022-09-18T05:09:45.000Z,1000.3
2022-09-18T05:10:58.000Z,1000.3
2022-09-18T05:12:10.000Z,1000.3
2022-09-18T05:13:22.000Z,1000.3
2022-09-18T05:14:34.000Z,1000.3
2022-09-18T05:15:46.000Z,1000.3
2022-09-18T05:16:58.000Z,1000.4
2022-09-18T05:18:11.000Z,1000.4
2022-09-18T05:19:23.000Z,1000.3
2022-09-18T05:20:35.000Z,1000.4
2022-09-18T05:21:47.000Z,1000.4
2022-09-18T05:22:59.000Z,1000.4
2022-09-18T05:24:12.000Z,1000.5
2022-09-18T05:25:23.000Z,1000.4
2022-09-18T05:26:35.000Z,1000.5
2022-09-18T05:27:47.000Z,1000.5
2022-09-18T05:28:59.000Z,1000.4
2022-09-18T05:30:12.000Z,1000.5
2022-09-18T05:31:24.000Z,1000.5
2022-09-18T05:32:36.000Z,1000.5
2022-09-18T05:33:48.000Z,1000.6
2022-09-18T05:35:00.000Z,1000.5
2022-09-18T05:36:12.000Z,1000.5
2022-09-18T05:37:25.000Z,1000.5
2022-09-18T05:38:37.000Z,1000.5
2022-09-18T05:39:49.000Z,1000.5
2022-09-18T05:42:12.000Z,1000.5
2022-09-18T05:43:25.000Z,1000.6
2022-09-18T05:44:37.000Z,1000.5
2022-09-18T05:45:49.000Z,1000.6
2022-09-18T05:46:43.834Z,1000.5
2022-09-18T05:47:01.000Z,1000.6
2022-09-18T05:48:13.000Z,1000.6
2022-09-18T05:49:25.000Z,1000.6
2022-09-18T05:50:38.000Z,1000.6
2022-09-18T05:51:50.000Z,1000.6
2022-09-18T05:53:02.000Z,1000.6
2022-09-18T05:54:14.000Z,1000.6
2022-09-18T05:55:26.000Z,1000.6
2022-09-18T05:56:38.000Z,1000.6
2022-09-18T05:57:50.000Z,1000.6
2022-09-18T05:59:02.000Z,1000.6
2022-09-18T06:00:14.000Z,1000.6
2022-09-18T06:01:26.000Z,1000.6
2022-09-18T06:02:39.000Z,1000.6
2022-09-18T06:03:51.000Z,1000.6
2022-09-18T06:05:03.000Z,1000.7
2022-09-18T06:06:15.000Z,1000.6
2022-09-18T06:07:27.000Z,1000.6
2022-09-18T06:08:39.000Z,1000.6
2022-09-18T06:09:52.000Z,1000.6
2022-09-18T06:11:04.000Z,1000.6
2022-09-18T06:12:15.000Z,1000.5
2022-09-18T06:13:27.000Z,1000.6
2022-09-18T06:14:39.000Z,1000.6
2022-09-18T06:15:52.000Z,1000.6
2022-09-18T06:17:04.000Z,1000.5
2022-09-18T06:18:16.000Z,1000.6
2022-09-18T06:20:40.000Z,1000.6
2022-09-18T06:21:52.000Z,1000.5
2022-09-18T06:24:17.000Z,1000.5
2022-09-18T06:25:11.791Z,1000.6
2022-09-18T06:25:29.000Z,1000.6
2022-09-18T06:26:41.000Z,1000.6
2022-09-18T06:27:52.000Z,1000.5
2022-09-18T06:28:48.335Z,1000.5
2022-09-18T06:29:05.000Z,1000.6
2022-09-18T06:30:17.000Z,1000.6
2022-09-18T06:31:29.000Z,1000.6
2022-09-18T06:32:41.000Z,1000.7
2022-09-18T06:33:53.000Z,1000.7
2022-09-18T06:35:06.000Z,1000.7
2022-09-18T06:36:18.000Z,1000.6
2022-09-18T06:37:30.000Z,1000.7
2022-09-18T06:38:42.000Z,1000.7
2022-09-18T06:39:54.000Z,1000.7
2022-09-18T06:41:06.000Z,1000.7
2022-09-18T06:42:19.000Z,1000.7
2022-09-18T06:43:30.000Z,1000.8
2022-09-18T06:44:42.000Z,1000.7
2022-09-18T06:45:54.000Z,1000.7
2022-09-18T06:47:06.000Z,1000.7
2022-09-18T06:48:19.000Z,1000.7
2022-09-18T06:49:31.000Z,1000.7
2022-09-18T06:50:43.000Z,1000.8
2022-09-18T06:51:55.000Z,1000.7
2022-09-18T06:53:07.000Z,1000.8
2022-09-18T06:54:19.000Z,1000.7
2022-09-18T06:55:32.000Z,1000.7
2022-09-18T06:56:44.000Z,1000.7
2022-09-18T06:57:56.000Z,1000.7
2022-09-18T06:59:08.000Z,1000.7
2022-09-18T07:00:19.000Z,1000.7
2022-09-18T07:01:32.000Z,1000.7
2022-09-18T07:02:44.000Z,1000.7
2022-09-18T07:03:56.000Z,1000.6
2022-09-18T07:05:08.000Z,1000.6
2022-09-18T07:06:20.000Z,1000.7
2022-09-18T07:07:33.000Z,1000.7
2022-09-18T07:08:45.000Z,1000.7
2022-09-18T07:09:57.000Z,1000.8
2022-09-18T07:11:09.000Z,1000.8
2022-09-18T07:12:21.000Z,1000.6
2022-09-18T07:13:33.000Z,1000.6
2022-09-18T07:14:46.000Z,1000.6
2022-09-18T07:15:58.000Z,1000.6
2022-09-18T07:17:09.000Z,1000.6
2022-09-18T07:18:21.000Z,1000.6
2022-09-18T07:19:33.000Z,1000.6
2022-09-18T07:20:46.000Z,1000.6
2022-09-18T07:23:10.000Z,1000.5
2022-09-18T07:24:22.000Z,1000.6
2022-09-18T07:25:34.000Z,1000.6
2022-09-18T07:26:46.000Z,1000.6
2022-09-18T07:27:41.000Z,1000.6
2022-09-18T07:27:59.000Z,1000.6
2022-09-18T07:29:11.000Z,1000.6
2022-09-18T07:30:23.000Z,1000.6
2022-09-18T07:31:35.000Z,1000.7
2022-09-18T07:33:59.000Z,1000.6
2022-09-18T07:35:11.000Z,1000.6
2022-09-18T07:36:23.000Z,1000.6
2022-09-18T07:37:35.000Z,1000.6
2022-09-18T07:38:30.000Z,1000.6
2022-09-18T07:38:47.000Z,1000.6
2022-09-18T07:39:59.000Z,1000.7
2022-09-18T07:41:12.000Z,1000.6
2022-09-18T07:42:24.000Z,1000.7
2022-09-18T07:43:36.000Z,1000.6
2022-09-18T07:44:48.000Z,1000.7
2022-09-18T07:46:00.000Z,1000.7
2022-09-18T07:47:13.000Z,1000.6
2022-09-18T07:48:24.000Z,1000.7
2022-09-18T07:49:36.000Z,1000.7
2022-09-18T07:50:48.000Z,1000.7
2022-09-18T07:52:00.000Z,1000.7
2022-09-18T07:53:13.000Z,1000.7
2022-09-18T07:54:25.000Z,1000.7
2022-09-18T07:55:37.000Z,1000.7
2022-09-18T07:56:49.000Z,1000.8
2022-09-18T07:58:01.000Z,1000.8
2022-09-18T07:59:13.000Z,1000.8
2022-09-18T08:00:26.000Z,1000.8
2022-09-18T08:01:38.000Z,1000.8
2022-09-18T08:02:50.000Z,1000.8
2022-09-18T08:04:01.000Z,1000.8
2022-09-18T08:05:13.000Z,1000.8
2022-09-18T08:06:26.000Z,1000.8
2022-09-18T08:07:38.000Z,1000.8
2022-09-18T08:08:50.000Z,1000.8
2022-09-18T08:10:02.000Z,1000.7
2022-09-18T08:11:14.000Z,1000.7
2022-09-18T08:12:26.000Z,1000.8
2022-09-18T08:13:39.000Z,1000.8
2022-09-18T08:14:51.000Z,1000.7
2022-09-18T08:16:03.000Z,1000.7
2022-09-18T08:17:15.000Z,1000.7
2022-09-18T08:18:27.000Z,1000.7
2022-09-18T08:19:39.000Z,1000.7
2022-09-18T08:20:51.000Z,1000.7
2022-09-18T08:22:03.000Z,1000.7
2022-09-18T08:23:15.000Z,1000.7
2022-09-18T08:24:27.000Z,1000.6
2022-09-18T08:25:40.000Z,1000.7
2022-09-18T08:26:52.000Z,1000.7
2022-09-18T08:28:04.000Z,1000.7
2022-09-18T08:29:16.000Z,1000.7
2022-09-18T08:30:28.000Z,1000.7
2022-09-18T08:31:40.000Z,1000.6
2022-09-18T08:32:53.000Z,1000.6
2022-09-18T08:34:05.000Z,1000.7
2022-09-18T08:35:16.000Z,1000.7
2022-09-18T08:36:28.000Z,1000.7
2022-09-18T08:37:40.000Z,1000.7
2022-09-18T08:38:53.000Z,1000.6
2022-09-18T08:40:05.000Z,1000.6
2022-09-18T08:41:17.000Z,1000.7
2022-09-18T08:42:29.000Z,1000.6
2022-09-18T08:43:41.000Z,1000.6
2022-09-18T08:44:53.000Z,1000.6
2022-09-18T08:46:06.000Z,1000.6
2022-09-18T08:47:18.000Z,1000.7
2022-09-18T08:48:30.000Z,1000.6
2022-09-18T08:49:42.000Z,1000.7
2022-09-18T08:50:53.000Z,1000.6
2022-09-18T08:52:06.000Z,1000.6
2022-09-18T08:53:18.000Z,1000.7
2022-09-18T08:54:30.000Z,1000.6
2022-09-18T08:55:42.000Z,1000.6
2022-09-18T08:56:54.000Z,1000.5
2022-09-18T08:58:07.000Z,1000.6
2022-09-18T08:59:19.000Z,1000.5
2022-09-18T09:00:31.000Z,1000.5
2022-09-18T09:01:43.000Z,1000.5
2022-09-18T09:02:55.000Z,1000.5
2022-09-18T09:04:07.000Z,1000.6
2022-09-18T09:05:20.000Z,1000.6
2022-09-18T09:06:31.000Z,1000.6
2022-09-18T09:07:43.000Z,1000.5
2022-09-18T09:08:55.000Z,1000.6
2022-09-18T09:10:07.000Z,1000.5
2022-09-18T09:11:19.000Z,1000.5
2022-09-18T09:12:31.000Z,1000.6
2022-09-18T09:13:43.000Z,1000.5
2022-09-18T09:14:55.000Z,1000.5
2022-09-18T09:16:07.000Z,1000.5
2022-09-18T09:17:20.000Z,1000.6
2022-09-18T09:18:32.000Z,1000.5
2022-09-18T09:19:44.000Z,1000.5
2022-09-18T09:20:56.000Z,1000.4
2022-09-18T09:22:08.000Z,1000.5
2022-09-18T09:23:20.000Z,1000.5
2022-09-18T09:24:33.000Z,1000.4
2022-09-18T09:25:45.000Z,1000.5
2022-09-18T09:28:08.000Z,1000.4
2022-09-18T09:29:20.000Z,1000.4
2022-09-18T09:30:33.000Z,1000.4
2022-09-18T09:31:45.000Z,1000.4
2022-09-18T09:32:39.817Z,1000.4
2022-09-18T09:32:57.000Z,1000.4
2022-09-18T09:34:09.000Z,1000.4
2022-09-18T09:35:21.000Z,1000.4
2022-09-18T09:36:33.000Z,1000.3
2022-09-18T09:37:46.000Z,1000.4
2022-09-18T09:38:58.000Z,1000.4
2022-09-18T09:40:10.000Z,1000.3
2022-09-18T09:41:22.000Z,1000.3
2022-09-18T09:42:33.000Z,1000.4
2022-09-18T09:43:46.000Z,1000.4
2022-09-18T09:44:58.000Z,1000.4
2022-09-18T09:46:10.000Z,1000.4
2022-09-18T09:47:22.000Z,1000.4
2022-09-18T09:49:47.000Z,1000.4
2022-09-18T09:50:59.000Z,1000.4
2022-09-18T09:52:11.000Z,1000.4
2022-09-18T09:53:23.000Z,1000.3
2022-09-18T09:54:18.155Z,1000.4
2022-09-18T09:54:35.000Z,1000.4
2022-09-18T09:55:47.000Z,1000.2
2022-09-18T09:57:00.000Z,1000.4
2022-09-18T09:58:11.000Z,1000.3
2022-09-18T09:59:23.000Z,1000.3
2022-09-18T10:00:35.000Z,1000.3
2022-09-18T10:01:47.000Z,1000.3
2022-09-18T10:03:00.000Z,1000.2
2022-09-18T10:04:12.000Z,1000.3
2022-09-18T10:05:24.000Z,1000.3
2022-09-18T10:06:36.000Z,1000.3
2022-09-18T10:07:48.000Z,1000.3
2022-09-18T10:09:00.000Z,1000.3
2022-09-18T10:10:13.000Z,1000.3
2022-09-18T10:11:25.000Z,1000.3
2022-09-18T10:12:37.000Z,1000.3
2022-09-18T10:13:48.000Z,1000.3
2022-09-18T10:15:00.000Z,1000.3
2022-09-18T10:16:13.000Z,1000.3
2022-09-18T10:17:25.000Z,1000.3
2022-09-18T10:18:37.000Z,1000.2
2022-09-18T10:19:49.000Z,1000.3
2022-09-18T10:21:01.000Z,1000.2
2022-09-18T10:22:14.000Z,1000.2
2022-09-18T10:23:26.000Z,1000.2
2022-09-18T10:24:38.000Z,1000.2
2022-09-18T10:25:50.000Z,1000.1
2022-09-18T10:27:02.000Z,1000.1
2022-09-18T10:28:14.000Z,1000
2022-09-18T10:29:26.000Z,1000.1
2022-09-18T10:30:38.000Z,1000.1
2022-09-18T10:31:50.000Z,1000
2022-09-18T10:33:02.000Z,1000.1
2022-09-18T10:34:14.000Z,1000
2022-09-18T10:35:27.000Z,1000.1
2022-09-18T10:36:39.000Z,1000
2022-09-18T10:37:51.000Z,1000
2022-09-18T10:39:03.000Z,1000
2022-09-18T10:40:15.000Z,1000
2022-09-18T10:41:27.000Z,1000
2022-09-18T10:42:40.000Z,1000
2022-09-18T10:43:52.000Z,1000
2022-09-18T10:45:03.000Z,1000.1
2022-09-18T10:46:15.000Z,1000.1
2022-09-18T10:47:27.000Z,1000
2022-09-18T10:48:40.000Z,1000.1
2022-09-18T10:49:52.000Z,1000
2022-09-18T10:51:04.000Z,1000
2022-09-18T10:52:16.000Z,1000.1
2022-09-18T10:53:28.000Z,1000
2022-09-18T10:54:41.000Z,1000
2022-09-18T10:55:53.000Z,1000
2022-09-18T10:57:05.000Z,1000
2022-09-18T10:58:17.000Z,1000.1
2022-09-18T10:59:29.000Z,1000
2022-09-18T11:00:41.000Z,1000
2022-09-18T11:01:53.000Z,1000
2022-09-18T11:03:05.000Z,1000
2022-09-18T11:04:17.000Z,1000
2022-09-18T11:05:29.000Z,1000
2022-09-18T11:06:41.000Z,1000
2022-09-18T11:07:54.000Z,1000
2022-09-18T11:09:06.000Z,1000
2022-09-18T11:10:18.000Z,999.9
2022-09-18T11:11:30.000Z,999.9
2022-09-18T11:12:42.000Z,999.9
2022-09-18T11:13:54.000Z,999.9
2022-09-18T11:15:07.000Z,999.9
2022-09-18T11:16:19.000Z,999.9
2022-09-18T11:17:30.000Z,999.9
2022-09-18T11:18:42.000Z,999.8
2022-09-18T11:19:54.000Z,999.9
2022-09-18T11:21:07.000Z,999.9
2022-09-18T11:22:19.000Z,1000
2022-09-18T11:23:31.000Z,999.9
2022-09-18T11:24:43.000Z,999.9
2022-09-18T11:25:55.000Z,999.8
2022-09-18T11:28:20.000Z,999.8
2022-09-18T11:29:32.000Z,999.7
2022-09-18T11:30:44.000Z,999.8
2022-09-18T11:31:56.000Z,999.7
2022-09-18T11:32:51.431Z,999.8
2022-09-18T11:33:07.000Z,999.7
2022-09-18T11:34:20.000Z,999.7
2022-09-18T11:35:32.000Z,999.7
2022-09-18T11:36:44.000Z,999.8
2022-09-18T11:37:56.000Z,999.8
2022-09-18T11:39:08.000Z,999.8
2022-09-18T11:40:21.000Z,999.8
2022-09-18T11:41:33.000Z,999.8
2022-09-18T11:42:45.000Z,999.8
2022-09-18T11:43:57.000Z,999.8
2022-09-18T11:46:21.000Z,999.8
2022-09-18T11:47:34.000Z,999.8
2022-09-18T11:48:45.000Z,999.8
2022-09-18T11:49:57.000Z,999.7
2022-09-18T11:50:53.000Z,999.8
2022-09-18T11:51:09.000Z,999.7
2022-09-18T11:52:21.000Z,999.7
2022-09-18T11:53:34.000Z,999.7
2022-09-18T11:54:46.000Z,999.8
2022-09-18T11:55:58.000Z,999.7
2022-09-18T11:58:22.000Z,999.6
2022-09-18T11:59:35.000Z,999.7
2022-09-18T12:00:47.000Z,999.7
2022-09-18T12:01:59.000Z,999.7
2022-09-18T12:02:54.087Z,999.8
2022-09-18T12:03:11.000Z,999.8
2022-09-18T12:04:22.000Z,999.8
2022-09-18T12:05:34.000Z,999.8
2022-09-18T12:06:47.000Z,999.7
2022-09-18T12:07:59.000Z,999.8
2022-09-18T12:09:11.000Z,999.7
2022-09-18T12:10:23.000Z,999.8
2022-09-18T12:11:35.000Z,999.8
2022-09-18T12:12:48.000Z,999.8
2022-09-18T12:14:00.000Z,999.8
2022-09-18T12:15:12.000Z,999.9
2022-09-18T12:16:24.000Z,999.9
2022-09-18T12:17:36.000Z,1000
2022-09-18T12:18:48.000Z,1000
2022-09-18T12:21:12.000Z,1000.1
2022-09-18T12:22:24.000Z,1000.2
2022-09-18T12:23:36.000Z,1000
2022-09-18T12:24:48.000Z,1000.1
2022-09-18T12:25:43.631Z,1000.1
2022-09-18T12:27:13.000Z,1000.1
2022-09-18T12:28:25.000Z,1000.1
2022-09-18T12:29:37.000Z,1000.1
2022-09-18T12:30:49.000Z,1000.1
2022-09-18T12:32:02.000Z,1000.1
2022-09-18T12:33:14.000Z,1000.1
2022-09-18T12:35:37.000Z,1000
2022-09-18T12:36:49.000Z,1000
2022-09-18T12:38:01.000Z,1000
2022-09-18T12:39:14.000Z,999.9
2022-09-18T12:40:09.000Z,1000.1
2022-09-18T12:40:26.000Z,999.9
2022-09-18T12:41:38.000Z,999.9
2022-09-18T12:42:50.000Z,999.9
2022-09-18T12:44:02.000Z,999.9
2022-09-18T12:45:15.000Z,999.8
2022-09-18T12:46:27.000Z,999.8
2022-09-18T12:47:39.000Z,999.8
2022-09-18T12:48:51.000Z,999.9
2022-09-18T12:50:03.000Z,999.7
2022-09-18T12:51:15.000Z,999.8
2022-09-18T12:52:27.000Z,999.8
2022-09-18T12:53:39.000Z,999.9
2022-09-18T12:54:51.000Z,999.8
2022-09-18T12:56:03.000Z,999.9
2022-09-18T12:57:15.000Z,999.8
2022-09-18T12:58:28.000Z,999.9
2022-09-18T12:59:40.000Z,999.8
2022-09-18T13:00:52.000Z,999.8
2022-09-18T13:02:04.000Z,999.9
2022-09-18T13:03:16.000Z,999.8
2022-09-18T13:04:29.000Z,999.8
2022-09-18T13:05:41.000Z,999.8
2022-09-18T13:06:52.000Z,999.7
2022-09-18T13:08:04.000Z,999.6
2022-09-18T13:09:16.000Z,999.6
2022-09-18T13:10:28.000Z,999.6
2022-09-18T13:11:41.000Z,999.6
2022-09-18T13:12:52.000Z,999.6
2022-09-18T13:14:04.000Z,999.5
2022-09-18T13:15:16.000Z,999.6
2022-09-18T13:16:28.000Z,999.5
2022-09-18T13:17:41.000Z,999.5
2022-09-18T13:18:53.000Z,999.5
2022-09-18T13:20:05.000Z,999.5
2022-09-18T13:21:17.000Z,999.4
2022-09-18T13:22:29.000Z,999.4
2022-09-18T13:23:42.000Z,999.4
2022-09-18T13:24:54.000Z,999.3
2022-09-18T13:26:06.000Z,999.4
2022-09-18T13:27:18.000Z,999.3
2022-09-18T13:28:29.000Z,999.3
2022-09-18T13:29:41.000Z,999.3
2022-09-18T13:30:54.000Z,999.2
2022-09-18T13:32:06.000Z,999.3
2022-09-18T13:33:18.000Z,999.3
2022-09-18T13:34:30.000Z,999.4
2022-09-18T13:35:42.000Z,999.3
2022-09-18T13:36:55.000Z,999.3
2022-09-18T13:38:07.000Z,999.4
2022-09-18T13:39:19.000Z,999.4
2022-09-18T13:40:31.000Z,999.4
2022-09-18T13:41:43.000Z,999.5
2022-09-18T13:42:55.000Z,999.3
2022-09-18T13:44:07.000Z,999.3
2022-09-18T13:45:19.000Z,999.3
2022-09-18T13:46:31.000Z,999.2
2022-09-18T13:47:43.000Z,999.2
2022-09-18T13:48:55.000Z,999.2
2022-09-18T13:50:08.000Z,999.3
2022-09-18T13:51:20.000Z,999.3
2022-09-18T13:52:32.000Z,999.2
2022-09-18T13:53:44.000Z,999.3
2022-09-18T13:54:56.000Z,999.2
2022-09-18T13:56:09.000Z,999.3
2022-09-18T13:57:21.000Z,999.2
2022-09-18T13:58:33.000Z,999.2
2022-09-18T13:59:44.000Z,999.3
2022-09-18T14:00:56.000Z,999.3
2022-09-18T14:02:08.000Z,999.3
2022-09-18T14:03:21.000Z,999.3
2022-09-18T14:04:33.000Z,999.2
2022-09-18T14:05:45.000Z,999.3
2022-09-18T14:06:57.000Z,999.3
2022-09-18T14:08:09.000Z,999.2
2022-09-18T14:09:22.000Z,999.3
2022-09-18T14:10:34.000Z,999.2
2022-09-18T14:11:46.000Z,999.2
2022-09-18T14:12:58.000Z,999.3
2022-09-18T14:14:10.000Z,999.3
2022-09-18T14:15:22.000Z,999.2
2022-09-18T14:16:34.000Z,999.3
2022-09-18T14:17:46.000Z,999.3
2022-09-18T14:18:58.000Z,999.2
2022-09-18T14:20:10.000Z,999.2
2022-09-18T14:21:22.000Z,999.3
2022-09-18T14:22:35.000Z,999.2
2022-09-18T14:23:47.000Z,999.2
2022-09-18T14:24:59.000Z,999.2
2022-09-18T14:26:11.000Z,999.3
2022-09-18T14:27:23.000Z,999.3
2022-09-18T14:28:36.000Z,999.3
2022-09-18T14:29:48.000Z,999.2
2022-09-18T14:30:59.000Z,999.3
2022-09-18T14:32:11.000Z,999.3
2022-09-18T14:33:23.000Z,999.3
2022-09-18T14:34:35.000Z,999.4
2022-09-18T14:35:48.000Z,999.4
2022-09-18T14:37:00.000Z,999.4
2022-09-18T14:38:12.000Z,999.4
2022-09-18T14:40:36.000Z,999.3
2022-09-18T14:41:49.000Z,999.3
2022-09-18T14:43:01.000Z,999.3
2022-09-18T14:44:13.000Z,999.3
2022-09-18T14:45:08.244Z,999.3
2022-09-18T14:45:25.000Z,999.3
2022-09-18T14:46:36.000Z,999.3
2022-09-18T14:47:49.000Z,999.3
2022-09-18T14:49:01.000Z,999.3
2022-09-18T14:50:13.000Z,999.3
2022-09-18T14:51:25.000Z,999.3
2022-09-18T14:52:37.000Z,999.3
2022-09-18T14:53:49.000Z,999.3
2022-09-18T14:55:02.000Z,999.3
2022-09-18T14:56:14.000Z,999.3
2022-09-18T14:57:26.000Z,999.3
2022-09-18T14:58:38.000Z,999.4
2022-09-18T14:59:50.000Z,999.3
2022-09-18T15:01:03.000Z,999.3
2022-09-18T15:02:14.000Z,999.3
2022-09-18T15:03:26.000Z,999.3
2022-09-18T15:04:38.000Z,999.2
2022-09-18T15:05:50.000Z,999.2
2022-09-18T15:07:02.000Z,999.3
2022-09-18T15:08:15.000Z,999.2
2022-09-18T15:09:27.000Z,999.3
2022-09-18T15:10:39.000Z,999.3
2022-09-18T15:11:51.000Z,999.3
2022-09-18T15:13:03.000Z,999.3
2022-09-18T15:14:16.000Z,999.2
2022-09-18T15:15:28.000Z,999.2
2022-09-18T15:16:40.000Z,999.2
2022-09-18T15:17:51.000Z,999.2
2022-09-18T15:19:03.000Z,999.2